createdAt,value
2022-10-26T00:01:29.311Z,14.70
2022-10-26T00:03:58.218Z,14.70
2022-10-26T00:06:29.060Z,14.70
2022-10-26T00:08:59.184Z,14.70
2022-10-26T00:11:28.753Z,14.70
2022-10-26T00:13:57.098Z,14.70
2022-10-26T00:16:27.930Z,14.70
2022-10-26T00:19:02.318Z,14.80
2022-10-26T00:21:31.945Z,14.80
2022-10-26T00:24:00.959Z,14.80
2022-10-26T00:26:29.348Z,14.80
2022-10-26T00:28:59.181Z,14.80
2022-10-26T00:31:27.584Z,14.90
2022-10-26T00:33:57.530Z,14.90
2022-10-26T00:36:27.065Z,14.90
2022-10-26T00:38:57.776Z,14.90
2022-10-26T00:41:29.987Z,15.00
2022-10-26T00:43:58.953Z,15.00
2022-10-26T00:46:31.921Z,15.00
2022-10-26T00:49:03.345Z,15.00
2022-10-26T00:51:38.276Z,15.00
2022-10-26T00:54:14.366Z,15.00
2022-10-26T00:56:43.263Z,14.90
2022-10-26T00:59:14.819Z,14.90
2022-10-26T01:01:48.329Z,14.90
2022-10-26T01:04:17.031Z,14.90
2022-10-26T01:06:47.244Z,14.90
2022-10-26T01:09:18.098Z,14.80
2022-10-26T01:11:46.773Z,14.90
2022-10-26T01:14:19.659Z,14.80
2022-10-26T01:17:04.916Z,14.70
2022-10-26T01:20:12.789Z,14.70
2022-10-26T01:22:46.668Z,14.60
2022-10-26T01:25:32.226Z,14.50
2022-10-26T01:28:03.984Z,14.40
2022-10-26T01:30:40.914Z,14.40
2022-10-26T01:33:22.437Z,14.30
2022-10-26T01:36:02.328Z,14.30
2022-10-26T01:38:36.187Z,14.20
2022-10-26T01:41:09.815Z,14.10
2022-10-26T01:43:42.246Z,14.10
2022-10-26T01:46:12.692Z,14.00
2022-10-26T01:48:43.343Z,13.90
2022-10-26T01:51:14.528Z,13.90
2022-10-26T01:53:46.716Z,13.90
2022-10-26T01:56:22.313Z,13.90
2022-10-26T01:59:08.991Z,13.90
2022-10-26T02:02:04.679Z,13.90
2022-10-26T02:04:43.690Z,13.90
2022-10-26T02:07:24.070Z,14.00
2022-10-26T02:10:02.865Z,14.00
2022-10-26T02:12:39.778Z,14.00
2022-10-26T02:15:12.859Z,14.10
2022-10-26T02:17:49.792Z,14.10
2022-10-26T02:20:23.253Z,14.20
2022-10-26T02:22:54.506Z,14.30
2022-10-26T02:25:28.814Z,14.30
2022-10-26T02:28:00.383Z,14.40
2022-10-26T02:30:29.206Z,14.40
2022-10-26T02:33:02.605Z,14.40
2022-10-26T02:35:33.129Z,14.50
2022-10-26T02:38:06.926Z,14.50
2022-10-26T02:40:36.190Z,14.50
2022-10-26T02:43:09.447Z,14.50
2022-10-26T02:45:44.705Z,14.50
2022-10-26T02:48:14.779Z,14.60
2022-10-26T02:50:50.960Z,14.60
2022-10-26T02:53:26.894Z,14.60
2022-10-26T02:55:55.445Z,14.60
2022-10-26T02:58:29.232Z,14.60
2022-10-26T03:00:59.674Z,14.60
2022-10-26T03:03:29.357Z,14.60
2022-10-26T03:05:57.619Z,14.70
2022-10-26T03:08:26.085Z,14.70
2022-10-26T03:10:54.643Z,14.70
2022-10-26T03:13:23.119Z,14.70
2022-10-26T03:15:51.342Z,14.70
2022-10-26T03:18:19.714Z,14.80
2022-10-26T03:20:50.627Z,14.80
2022-10-26T03:23:18.833Z,14.80
2022-10-26T03:25:47.495Z,14.80
2022-10-26T03:28:15.778Z,14.80
2022-10-26T03:30:45.816Z,14.90
2022-10-26T03:33:14.046Z,14.90
2022-10-26T03:35:42.303Z,14.90
2022-10-26T03:38:15.862Z,14.90
2022-10-26T03:40:44.486Z,14.90
2022-10-26T03:43:13.040Z,14.90
2022-10-26T03:45:43.669Z,14.90
2022-10-26T03:48:13.141Z,14.90
2022-10-26T03:50:43.195Z,14.90
2022-10-26T03:53:13.794Z,14.90
2022-10-26T03:55:45.373Z,14.90
2022-10-26T03:58:14.292Z,14.90
2022-10-26T04:00:42.580Z,14.80
2022-10-26T04:03:13.238Z,14.80
2022-10-26T04:05:41.655Z,14.80
2022-10-26T04:08:10.333Z,14.80
2022-10-26T04:10:40.692Z,14.70
2022-10-26T04:13:10.763Z,14.70
2022-10-26T04:15:40.783Z,14.70
2022-10-26T04:18:12.968Z,14.70
2022-10-26T04:20:43.092Z,14.70
2022-10-26T04:23:14.455Z,14.70
2022-10-26T04:25:47.138Z,14.70
2022-10-26T04:28:18.251Z,14.70
2022-10-26T04:30:48.589Z,14.70
2022-10-26T04:33:16.878Z,14.70
2022-10-26T04:35:46.448Z,14.70
2022-10-26T04:38:15.185Z,14.80
2022-10-26T04:40:44.804Z,14.80
2022-10-26T04:43:13.090Z,14.80
2022-10-26T04:45:41.969Z,14.80
2022-10-26T04:48:14.380Z,14.90
2022-10-26T04:50:42.891Z,14.90
2022-10-26T04:53:11.491Z,14.90
2022-10-26T04:55:41.004Z,14.90
2022-10-26T04:58:11.980Z,14.90
2022-10-26T05:00:44.533Z,15.00
2022-10-26T05:03:12.894Z,15.00
2022-10-26T05:05:41.136Z,15.00
2022-10-26T05:08:09.398Z,15.10
2022-10-26T05:10:37.705Z,15.10
2022-10-26T05:13:06.179Z,15.10
2022-10-26T05:15:35.768Z,15.20
2022-10-26T05:18:06.515Z,15.20
2022-10-26T05:20:36.833Z,15.20
2022-10-26T05:23:07.302Z,15.20
2022-10-26T05:25:38.357Z,15.20
2022-10-26T05:28:11.770Z,15.20
2022-10-26T05:30:43.871Z,15.10
2022-10-26T05:33:13.539Z,15.10
2022-10-26T05:35:42.197Z,15.10
2022-10-26T05:38:11.183Z,15.20
2022-10-26T05:40:39.556Z,15.20
2022-10-26T05:43:10.471Z,15.30
2022-10-26T05:45:40.223Z,15.30
2022-10-26T05:48:09.932Z,15.30
2022-10-26T05:50:38.250Z,15.40
2022-10-26T05:53:06.565Z,15.40
2022-10-26T05:55:36.890Z,15.40
2022-10-26T05:58:05.660Z,15.40
2022-10-26T06:00:34.680Z,15.50
2022-10-26T06:03:16.050Z,15.50
2022-10-26T06:05:55.125Z,15.50
2022-10-26T06:08:29.133Z,15.50
2022-10-26T06:10:59.712Z,15.50
2022-10-26T06:13:29.087Z,15.50
2022-10-26T06:16:12.151Z,15.50
2022-10-26T06:18:51.866Z,15.60
2022-10-26T06:21:38.394Z,15.60
2022-10-26T06:24:16.403Z,15.60
2022-10-26T06:26:52.993Z,15.60
2022-10-26T06:29:32.290Z,15.60
2022-10-26T06:32:00.957Z,15.60
2022-10-26T06:34:36.545Z,15.70
2022-10-26T06:37:05.928Z,15.70
2022-10-26T06:39:40.019Z,15.70
2022-10-26T06:42:12.199Z,15.70
2022-10-26T06:44:41.242Z,15.70
2022-10-26T06:47:19.755Z,15.70
2022-10-26T06:50:01.398Z,15.70
2022-10-26T06:52:36.583Z,15.70
2022-10-26T06:55:14.273Z,15.70
2022-10-26T06:57:44.371Z,15.70
2022-10-26T07:00:20.557Z,15.80
2022-10-26T07:02:50.914Z,15.80
2022-10-26T07:05:22.737Z,15.80
2022-10-26T07:07:51.298Z,15.90
2022-10-26T07:10:19.765Z,15.90
2022-10-26T07:12:48.066Z,15.90
2022-10-26T07:15:16.937Z,16.00
2022-10-26T07:17:46.127Z,16.00
2022-10-26T07:20:15.442Z,16.10
2022-10-26T07:22:45.723Z,16.10
2022-10-26T07:25:14.152Z,16.20
2022-10-26T07:27:43.575Z,16.20
2022-10-26T07:30:12.635Z,16.30
2022-10-26T07:32:40.992Z,16.30
2022-10-26T07:35:10.662Z,16.30
2022-10-26T07:37:39.105Z,16.40
2022-10-26T07:40:10.383Z,16.40
2022-10-26T07:42:41.980Z,16.50
2022-10-26T07:45:12.816Z,16.50
2022-10-26T07:47:41.103Z,16.50
2022-10-26T07:50:12.042Z,16.60
2022-10-26T07:52:42.557Z,16.60
2022-10-26T07:55:14.622Z,16.70
2022-10-26T07:57:44.625Z,16.80
2022-10-26T08:00:14.298Z,16.80
2022-10-26T08:02:42.620Z,16.90
2022-10-26T08:05:10.955Z,16.90
2022-10-26T08:07:45.726Z,16.90
2022-10-26T08:10:16.328Z,16.90
2022-10-26T08:12:45.314Z,16.90
2022-10-26T08:15:13.572Z,17.00
2022-10-26T08:17:43.500Z,17.10
2022-10-26T08:20:12.809Z,17.20
2022-10-26T08:22:41.296Z,17.20
2022-10-26T08:25:10.160Z,17.20
2022-10-26T08:27:39.944Z,17.30
2022-10-26T08:30:09.223Z,17.30
2022-10-26T08:32:37.570Z,17.40
2022-10-26T08:35:06.311Z,17.40
2022-10-26T08:37:34.907Z,17.40
2022-10-26T08:40:05.430Z,17.40
2022-10-26T08:42:39.038Z,17.50
2022-10-26T08:45:32.993Z,17.50
2022-10-26T08:48:10.643Z,17.60
2022-10-26T08:50:43.761Z,17.60
2022-10-26T08:53:19.938Z,17.60
2022-10-26T08:55:51.879Z,17.60
2022-10-26T08:58:23.638Z,17.60
2022-10-26T09:00:54.015Z,17.60
2022-10-26T09:03:22.419Z,17.50
2022-10-26T09:06:11.424Z,17.50
2022-10-26T09:08:46.998Z,17.50
2022-10-26T09:11:23.250Z,17.60
2022-10-26T09:14:05.359Z,17.60
2022-10-26T09:16:41.618Z,17.60
2022-10-26T09:19:35.023Z,17.70
2022-10-26T09:22:09.180Z,17.70
2022-10-26T09:24:43.177Z,17.80
2022-10-26T09:27:21.056Z,17.80
2022-10-26T09:29:51.365Z,17.90
2022-10-26T09:32:22.678Z,18.00
2022-10-26T09:34:54.410Z,18.10
2022-10-26T09:37:27.636Z,18.20
2022-10-26T09:40:04.150Z,18.40
2022-10-26T09:42:39.826Z,18.50
2022-10-26T09:45:17.417Z,18.70
2022-10-26T09:47:52.939Z,18.90
2022-10-26T09:50:28.038Z,19.10
2022-10-26T09:52:56.318Z,19.40
2022-10-26T09:55:26.017Z,19.60
2022-10-26T09:57:58.807Z,19.80
2022-10-26T10:00:30.789Z,20.00
2022-10-26T10:03:00.541Z,20.30
2022-10-26T10:08:22.193Z,20.70
2022-10-26T10:11:00.046Z,20.80
2022-10-26T10:13:30.856Z,21.00
2022-10-26T10:16:06.515Z,21.20
2022-10-26T10:18:39.402Z,21.40
2022-10-26T10:21:11.208Z,21.60
2022-10-26T10:23:53.263Z,21.80
2022-10-26T10:26:21.594Z,21.90
2022-10-26T10:28:59.611Z,22.00
2022-10-26T10:31:32.593Z,21.80
2022-10-26T10:34:15.951Z,21.70
2022-10-26T10:36:44.315Z,21.50
2022-10-26T10:39:36.786Z,21.30
2022-10-26T10:42:09.017Z,21.10
2022-10-26T10:44:37.478Z,21.00
2022-10-26T10:47:07.737Z,20.90
2022-10-26T10:49:37.691Z,20.90
2022-10-26T10:52:06.351Z,20.90
2022-10-26T10:54:37.186Z,20.90
2022-10-26T10:57:19.632Z,20.90
2022-10-26T10:59:57.945Z,20.90
2022-10-26T11:02:52.767Z,21.00
2022-10-26T11:05:29.248Z,21.10
2022-10-26T11:08:03.756Z,21.20
2022-10-26T11:10:36.184Z,21.30
2022-10-26T11:13:11.272Z,21.40
2022-10-26T11:15:44.518Z,21.40
2022-10-26T11:18:17.960Z,21.50
2022-10-26T11:20:54.216Z,21.60
2022-10-26T11:23:26.998Z,21.70
2022-10-26T11:26:00.092Z,21.90
2022-10-26T11:28:40.291Z,22.00
2022-10-26T11:31:15.791Z,22.20
2022-10-26T11:33:50.450Z,22.40
2022-10-26T11:36:25.348Z,23.10
2022-10-26T11:39:02.749Z,24.10
2022-10-26T11:41:38.382Z,25.30
2022-10-26T11:44:17.672Z,26.40
2022-10-26T11:46:52.169Z,27.40
2022-10-26T11:49:30.037Z,28.10
2022-10-26T11:52:07.878Z,28.80
2022-10-26T11:54:41.935Z,29.40
2022-10-26T11:57:12.363Z,30.00
2022-10-26T11:59:45.956Z,30.60
2022-10-26T12:02:17.677Z,30.90
2022-10-26T12:04:51.032Z,31.00
2022-10-26T12:07:26.992Z,30.90
2022-10-26T12:09:57.981Z,31.10
2022-10-26T12:12:37.480Z,31.50
2022-10-26T12:15:19.667Z,32.00
2022-10-26T12:17:54.867Z,32.30
2022-10-26T12:21:03.153Z,32.60
2022-10-26T12:23:40.954Z,32.90
2022-10-26T12:26:49.294Z,33.10
2022-10-26T12:29:40.221Z,33.20
2022-10-26T12:32:51.169Z,33.30
2022-10-26T12:35:41.575Z,33.80
2022-10-26T12:38:43.757Z,34.50
2022-10-26T12:41:22.110Z,35.10
2022-10-26T12:43:50.875Z,35.50
2022-10-26T12:46:45.334Z,35.70
2022-10-26T12:49:43.671Z,35.60
2022-10-26T12:52:33.194Z,35.40
2022-10-26T12:55:37.376Z,35.40
2022-10-26T12:58:39.370Z,35.40
2022-10-26T13:01:35.925Z,35.20
2022-10-26T13:04:21.753Z,35.10
2022-10-26T13:07:15.721Z,35.00
2022-10-26T13:09:47.736Z,34.90
2022-10-26T13:12:16.342Z,34.70
2022-10-26T13:15:00.650Z,34.40
2022-10-26T13:20:09.227Z,34.10
2022-10-26T13:22:46.889Z,34.30
2022-10-26T13:25:23.394Z,34.40
2022-10-26T13:28:07.076Z,34.40
2022-10-26T13:30:49.568Z,34.40
2022-10-26T13:33:26.132Z,34.40
2022-10-26T13:35:59.735Z,34.30
2022-10-26T13:38:36.515Z,34.30
2022-10-26T13:41:18.380Z,34.40
2022-10-26T13:43:48.240Z,34.60
2022-10-26T13:46:29.049Z,34.90
2022-10-26T13:49:02.861Z,34.90
2022-10-26T13:51:40.958Z,34.90
2022-10-26T13:54:21.494Z,34.90
2022-10-26T13:57:09.211Z,34.80
2022-10-26T13:59:42.845Z,34.90
2022-10-26T14:02:20.911Z,35.00
2022-10-26T14:04:52.789Z,35.20
2022-10-26T14:07:26.724Z,35.50
2022-10-26T14:09:57.036Z,35.80
2022-10-26T14:12:29.265Z,36.00
2022-10-26T14:15:05.242Z,35.90
2022-10-26T14:17:37.231Z,35.80
2022-10-26T14:20:06.705Z,35.90
2022-10-26T14:22:35.303Z,36.00
2022-10-26T14:25:03.713Z,36.10
2022-10-26T14:27:34.964Z,36.20
2022-10-26T14:30:32.042Z,36.40
2022-10-26T14:32:57.275Z,36.60
2022-10-26T14:35:29.966Z,36.60
2022-10-26T14:38:01.815Z,36.50
2022-10-26T14:40:32.375Z,36.30
2022-10-26T14:43:03.570Z,36.20
2022-10-26T14:45:50.195Z,36.10
2022-10-26T14:48:30.498Z,36.00
2022-10-26T14:51:00.371Z,35.80
2022-10-26T14:53:38.097Z,35.80
2022-10-26T14:56:21.897Z,35.50
2022-10-26T14:58:51.118Z,35.20
2022-10-26T15:01:31.821Z,34.80
2022-10-26T15:04:06.321Z,34.50
2022-10-26T15:06:40.515Z,34.10
2022-10-26T15:09:38.624Z,33.90
2022-10-26T15:12:09.534Z,33.60
2022-10-26T15:14:37.928Z,33.10
2022-10-26T15:17:06.188Z,32.50
2022-10-26T15:19:35.020Z,31.80
2022-10-26T15:22:03.386Z,31.00
2022-10-26T15:24:39.492Z,30.40
2022-10-26T15:27:16.123Z,29.70
2022-10-26T15:29:46.422Z,28.90
2022-10-26T15:32:36.744Z,28.20
2022-10-26T15:35:28.299Z,27.50
2022-10-26T15:37:58.015Z,27.00
2022-10-26T15:40:29.431Z,26.60
2022-10-26T15:43:00.866Z,26.10
2022-10-26T15:45:33.097Z,25.80
2022-10-26T15:48:18.895Z,25.50
2022-10-26T15:50:47.154Z,25.20
2022-10-26T15:53:22.790Z,25.00
2022-10-26T15:55:54.975Z,24.80
2022-10-26T15:58:26.067Z,24.60
2022-10-26T16:00:55.423Z,24.40
2022-10-26T16:03:26.350Z,24.20
2022-10-26T16:05:59.316Z,24.00
2022-10-26T16:08:30.115Z,23.70
2022-10-26T16:11:02.477Z,23.50
2022-10-26T16:13:30.677Z,23.20
2022-10-26T16:15:59.478Z,22.90
2022-10-26T16:18:27.927Z,22.70
2022-10-26T16:20:56.233Z,22.50
2022-10-26T16:23:25.171Z,22.20
2022-10-26T16:25:54.285Z,22.00
2022-10-26T16:28:24.507Z,21.80
2022-10-26T16:30:52.851Z,21.60
2022-10-26T16:33:21.191Z,21.40
2022-10-26T16:35:57.341Z,21.20
2022-10-26T16:38:27.279Z,21.00
2022-10-26T16:41:03.642Z,20.80
2022-10-26T16:43:37.023Z,20.60
2022-10-26T16:46:09.403Z,20.50
2022-10-26T16:48:38.559Z,20.30
2022-10-26T16:51:09.902Z,20.20
2022-10-26T16:53:39.042Z,20.10
2022-10-26T16:56:09.918Z,19.90
2022-10-26T16:58:39.848Z,19.80
2022-10-26T17:01:10.402Z,19.70
2022-10-26T17:03:39.575Z,19.50
2022-10-26T17:06:11.350Z,19.50
2022-10-26T17:08:40.382Z,19.30
2022-10-26T17:11:10.375Z,19.20
2022-10-26T17:13:41.364Z,19.10
2022-10-26T17:16:13.914Z,19.00
2022-10-26T17:18:44.764Z,18.90
2022-10-26T17:21:15.393Z,18.80
2022-10-26T17:23:44.573Z,18.70
2022-10-26T17:26:14.648Z,18.60
2022-10-26T17:28:44.836Z,18.50
2022-10-26T17:31:15.019Z,18.40
2022-10-26T17:33:44.911Z,18.30
2022-10-26T17:36:17.602Z,18.30
2022-10-26T17:38:46.237Z,18.20
2022-10-26T17:41:16.484Z,18.10
2022-10-26T17:43:49.286Z,18.00
2022-10-26T17:46:23.066Z,18.00
2022-10-26T17:48:55.833Z,17.90
2022-10-26T17:51:25.464Z,17.80
2022-10-26T17:53:54.486Z,17.80
2022-10-26T17:56:24.273Z,17.80
2022-10-26T17:58:56.914Z,17.80
2022-10-26T18:01:29.306Z,17.70
2022-10-26T18:03:58.349Z,17.70
2022-10-26T18:06:27.071Z,17.60
2022-10-26T18:08:59.991Z,17.50
2022-10-26T18:13:59.470Z,17.40
2022-10-26T18:16:30.718Z,17.30
2022-10-26T18:19:02.082Z,17.20
2022-10-26T18:21:33.526Z,17.10
2022-10-26T18:24:01.889Z,17.10
2022-10-26T18:26:31.296Z,17.00
2022-10-26T18:29:07.558Z,17.00
2022-10-26T18:31:36.058Z,16.90
2022-10-26T18:34:06.708Z,16.90
2022-10-26T18:39:07.344Z,16.80
2022-10-26T18:41:36.112Z,16.80
2022-10-26T18:44:08.831Z,16.70
2022-10-26T18:46:40.791Z,16.60
2022-10-26T18:49:11.874Z,16.50
2022-10-26T18:51:40.484Z,16.50
2022-10-26T18:54:09.760Z,16.40
2022-10-26T18:56:39.503Z,16.40
2022-10-26T18:59:09.974Z,16.40
2022-10-26T19:01:42.621Z,16.40
2022-10-26T19:04:12.267Z,16.30
2022-10-26T19:06:47.235Z,16.30
2022-10-26T19:09:17.541Z,16.20
2022-10-26T19:11:46.328Z,16.20
2022-10-26T19:14:16.178Z,16.10
2022-10-26T19:16:46.464Z,16.10
2022-10-26T19:19:16.923Z,16.00
2022-10-26T19:21:46.104Z,16.00
2022-10-26T19:24:17.894Z,15.90
2022-10-26T19:26:47.757Z,15.80
2022-10-26T19:29:18.341Z,15.80
2022-10-26T19:31:47.650Z,15.80
2022-10-26T19:34:17.604Z,15.80
2022-10-26T19:36:47.752Z,15.70
2022-10-26T19:39:17.577Z,15.70
2022-10-26T19:41:47.656Z,15.60
2022-10-26T19:44:22.012Z,15.50
2022-10-26T19:46:53.586Z,15.50
2022-10-26T19:49:22.157Z,15.40
2022-10-26T19:51:50.441Z,15.40
2022-10-26T19:54:19.668Z,15.40
2022-10-26T19:56:51.005Z,15.30
2022-10-26T19:59:22.836Z,15.30
2022-10-26T20:01:51.737Z,15.30
2022-10-26T20:04:22.465Z,15.30
2022-10-26T20:06:51.113Z,15.30
2022-10-26T20:09:20.257Z,15.20
2022-10-26T20:11:50.420Z,15.20
2022-10-26T20:14:21.749Z,15.10
2022-10-26T20:16:51.402Z,15.00
2022-10-26T20:19:21.432Z,15.00
2022-10-26T20:21:50.344Z,14.90
2022-10-26T20:24:19.181Z,14.90
2022-10-26T20:26:49.692Z,14.80
2022-10-26T20:29:18.971Z,14.80
2022-10-26T20:31:53.812Z,14.70
2022-10-26T20:34:25.222Z,14.70
2022-10-26T20:36:53.486Z,14.60
2022-10-26T20:39:22.868Z,14.60
2022-10-26T20:41:52.491Z,14.50
2022-10-26T20:44:27.014Z,14.50
2022-10-26T20:46:58.430Z,14.50
2022-10-26T20:49:27.193Z,14.50
2022-10-26T20:52:20.020Z,14.50
2022-10-26T20:54:55.090Z,14.40
2022-10-26T20:57:31.614Z,14.40
2022-10-26T21:00:04.267Z,14.30
2022-10-26T21:02:34.679Z,14.30
2022-10-26T21:05:03.422Z,14.30
2022-10-26T21:07:33.005Z,14.20
2022-10-26T21:10:02.250Z,14.20
2022-10-26T21:12:30.817Z,14.20
2022-10-26T21:14:59.891Z,14.10
2022-10-26T21:17:29.483Z,14.10
2022-10-26T21:19:59.912Z,14.10
2022-10-26T21:22:28.448Z,14.00
2022-10-26T21:24:58.151Z,14.00
2022-10-26T21:27:26.411Z,14.00
2022-10-26T21:29:54.671Z,13.90
2022-10-26T21:32:23.058Z,13.90
2022-10-26T21:34:52.426Z,13.80
2022-10-26T21:37:22.015Z,13.80
2022-10-26T21:39:50.245Z,13.70
2022-10-26T21:42:19.530Z,13.70
2022-10-26T21:44:47.991Z,13.70
2022-10-26T21:47:16.268Z,13.70
2022-10-26T21:49:44.507Z,13.60
2022-10-26T21:52:13.015Z,13.60
2022-10-26T21:54:44.449Z,13.50
2022-10-26T21:57:12.964Z,13.50
2022-10-26T21:59:41.213Z,13.50
2022-10-26T22:02:10.397Z,13.40
2022-10-26T22:04:40.784Z,13.40
2022-10-26T22:07:09.201Z,13.40
2022-10-26T22:09:45.024Z,13.50
2022-10-26T22:12:27.324Z,13.50
2022-10-26T22:14:55.557Z,13.50
2022-10-26T22:17:24.489Z,13.50
2022-10-26T22:19:52.831Z,13.50
2022-10-26T22:22:21.066Z,13.40
2022-10-26T22:24:49.435Z,13.40
2022-10-26T22:27:17.728Z,13.30
2022-10-26T22:29:47.339Z,13.30
2022-10-26T22:32:15.556Z,13.30
2022-10-26T22:34:44.408Z,13.20
2022-10-26T22:37:13.458Z,13.20
2022-10-26T22:39:41.711Z,13.20
2022-10-26T22:42:10.037Z,13.10
2022-10-26T22:44:38.349Z,13.10
2022-10-26T22:47:10.294Z,13.00
2022-10-26T22:49:39.838Z,13.00
2022-10-26T22:52:08.159Z,12.90
2022-10-26T22:54:36.462Z,12.90
2022-10-26T22:57:05.185Z,12.90
2022-10-26T22:59:33.429Z,12.80
2022-10-26T23:02:01.766Z,12.80
2022-10-26T23:04:33.045Z,12.80
2022-10-26T23:07:03.189Z,12.70
2022-10-26T23:09:31.767Z,12.70
2022-10-26T23:12:00.332Z,12.70
2022-10-26T23:14:29.143Z,12.60
2022-10-26T23:16:57.490Z,12.60
2022-10-26T23:19:25.911Z,12.60
2022-10-26T23:21:57.683Z,12.50
2022-10-26T23:24:25.956Z,12.50
2022-10-26T23:26:54.294Z,12.50
2022-10-26T23:29:22.866Z,12.40
2022-10-26T23:31:51.205Z,12.40
2022-10-26T23:34:21.558Z,12.40
2022-10-26T23:36:52.078Z,12.40
2022-10-26T23:39:21.737Z,12.40
2022-10-26T23:41:50.386Z,12.40
2022-10-26T23:44:18.662Z,12.40
2022-10-26T23:46:47.056Z,12.30
2022-10-26T23:49:15.621Z,12.30
2022-10-26T23:51:43.949Z,12.20
2022-10-26T23:54:12.645Z,12.20
2022-10-26T23:56:42.624Z,12.20
2022-10-26T23:59:12.713Z,12.20
